Time;durP1;ratioP1;P1;durP2;ratioP2;P2;SDS_P1;SDS_P2;PMS_P1;PMS_P2;Temp;Humidity;BMP_temperature;BMP_pressure;BME280_temperature;BME280_humidity;BME280_pressure;Samples;Min_cycle;Max_cycle;Signal;HPM_P1;HPM_P2
2021/05/07 00:01:00;;;;;;;12.57;4.00;;;;;;;;;;5054714;28;20021;-65
2021/05/07 00:03:26;;;;;;;10.95;3.55;;;;;;;;;;5054401;28;20067;-64
2021/05/07 00:05:55;;;;;;;14.98;4.47;;;;;;;;;;5054501;28;20045;-64
2021/05/07 00:08:22;;;;;;;21.92;7.00;;;;;;;;;;5054335;28;20021;-64
2021/05/07 00:10:47;;;;;;;8.45;3.88;;;;;;;;;;5054620;28;20052;-64
2021/05/07 00:13:13;;;;;;;12.07;3.95;;;;;;;;;;5054298;28;20069;-64
2021/05/07 00:15:38;;;;;;;10.65;3.92;;;;;;;;;;5054618;28;20025;-64
2021/05/07 00:18:03;;;;;;;18.40;4.78;;;;;;;;;;5054339;28;20017;-64
2021/05/07 00:20:29;;;;;;;17.25;4.45;;;;;;;;;;5054270;28;20552;-64
2021/05/07 00:22:54;;;;;;;15.05;3.80;;;;;;;;;;5054482;28;20020;-64
2021/05/07 00:25:19;;;;;;;19.95;5.38;;;;;;;;;;5053708;28;20362;-64
2021/05/07 00:27:45;;;;;;;11.95;4.22;;;;;;;;;;5054058;28;20070;-64
2021/05/07 00:30:10;;;;;;;18.35;4.70;;;;;;;;;;5053976;28;20381;-64
2021/05/07 00:32:36;;;;;;;14.05;4.32;;;;;;;;;;5054120;28;20150;-64
2021/05/07 00:35:01;;;;;;;20.10;4.95;;;;;;;;;;5053879;28;20186;-64
2021/05/07 00:37:26;;;;;;;18.45;4.68;;;;;;;;;;5053822;28;20024;-64
2021/05/07 00:39:51;;;;;;;13.20;4.70;;;;;;;;;;5053791;28;20130;-64
2021/05/07 00:42:18;;;;;;;12.80;4.80;;;;;;;;;;5053779;28;20033;-64
2021/05/07 00:44:43;;;;;;;13.38;4.38;;;;;;;;;;5053746;28;20021;-64
2021/05/07 00:47:08;;;;;;;12.68;4.00;;;;;;;;;;5052512;28;20039;-64
2021/05/07 00:49:34;;;;;;;19.10;5.13;;;;;;;;;;5053019;28;20035;-64
2021/05/07 00:52:00;;;;;;;16.40;4.55;;;;;;;;;;5051862;28;20043;-64
2021/05/07 00:54:26;;;;;;;18.33;4.82;;;;;;;;;;5053176;28;20016;-64
2021/05/07 00:56:52;;;;;;;19.65;4.32;;;;;;;;;;5053343;28;20037;-64
2021/05/07 00:59:17;;;;;;;16.00;5.13;;;;;;;;;;5053452;28;20020;-64
2021/05/07 01:01:42;;;;;;;16.55;5.53;;;;;;;;;;5053216;28;20028;-64
2021/05/07 01:04:07;;;;;;;16.33;4.95;;;;;;;;;;5052993;28;20033;-64
2021/05/07 01:06:33;;;;;;;19.45;4.72;;;;;;;;;;5053375;28;20047;-64
2021/05/07 01:08:58;;;;;;;12.25;4.57;;;;;;;;;;5053351;28;20021;-64
2021/05/07 01:11:23;;;;;;;13.30;4.43;;;;;;;;;;5052582;28;20409;-64
2021/05/07 01:13:49;;;;;;;13.90;3.92;;;;;;;;;;5053230;28;20013;-64
2021/05/07 01:16:14;;;;;;;22.13;5.32;;;;;;;;;;5053024;28;20021;-64
2021/05/07 01:18:39;;;;;;;13.65;4.47;;;;;;;;;;5052894;28;20035;-64
2021/05/07 01:21:04;;;;;;;15.50;4.32;;;;;;;;;;5053280;28;20013;-64
2021/05/07 01:23:30;;;;;;;19.48;4.30;;;;;;;;;;5053055;28;20021;-64
2021/05/07 01:25:55;;;;;;;23.17;4.55;;;;;;;;;;5053119;28;20083;-64
2021/05/07 01:28:20;;;;;;;13.15;4.15;;;;;;;;;;5053030;28;20431;-64
2021/05/07 01:30:47;;;;;;;12.52;4.50;;;;;;;;;;5053205;28;20062;-64
2021/05/07 01:33:13;;;;;;;17.55;4.45;;;;;;;;;;5052959;28;20033;-64
2021/05/07 01:35:39;;;;;;;14.00;4.65;;;;;;;;;;5052983;28;20105;-64
2021/05/07 01:38:05;;;;;;;13.15;4.13;;;;;;;;;;5053027;28;20107;-64
2021/05/07 01:40:32;;;;;;;21.85;5.90;;;;;;;;;;5052618;28;20098;-64
2021/05/07 01:42:58;;;;;;;15.32;5.03;;;;;;;;;;5052996;28;20051;-64
2021/05/07 01:45:27;;;;;;;16.83;4.53;;;;;;;;;;5052858;28;20052;-64
2021/05/07 01:47:53;;;;;;;17.58;4.45;;;;;;;;;;5053088;28;20099;-64
2021/05/07 01:50:20;;;;;;;13.68;4.35;;;;;;;;;;5052520;28;20527;-64
2021/05/07 01:52:45;;;;;;;17.30;5.20;;;;;;;;;;5052999;28;20083;-64
2021/05/07 01:55:12;;;;;;;20.48;4.53;;;;;;;;;;5052836;28;20473;-64
2021/05/07 01:57:39;;;;;;;16.67;4.35;;;;;;;;;;5052869;28;20021;-64
2021/05/07 02:00:24;;;;;;;17.88;4.25;;;;;;;;;;5052291;28;20492;-64
2021/05/07 02:02:50;;;;;;;22.75;5.93;;;;;;;;;;5051761;28;20075;-64
2021/05/07 02:05:18;;;;;;;23.13;5.55;;;;;;;;;;5052938;28;20032;-64
2021/05/07 02:07:43;;;;;;;14.70;4.30;;;;;;;;;;5052868;28;20123;-64
2021/05/07 02:10:09;;;;;;;13.05;5.20;;;;;;;;;;5052708;28;20104;-64
2021/05/07 02:12:35;;;;;;;34.42;5.32;;;;;;;;;;5052709;28;20025;-64
2021/05/07 02:15:00;;;;;;;18.13;4.70;;;;;;;;;;5052611;28;20155;-64
2021/05/07 02:17:26;;;;;;;10.73;4.43;;;;;;;;;;5052676;28;20060;-64
2021/05/07 02:19:51;;;;;;;10.50;5.43;;;;;;;;;;5052554;28;20410;-64
2021/05/07 02:22:16;;;;;;;21.20;5.90;;;;;;;;;;5052587;28;20033;-64
2021/05/07 02:24:42;;;;;;;16.38;5.40;;;;;;;;;;5052538;28;20036;-64
2021/05/07 02:27:07;;;;;;;15.98;5.18;;;;;;;;;;5052296;28;20539;-64
2021/05/07 02:29:32;;;;;;;20.92;6.25;;;;;;;;;;5052405;28;20033;-64
2021/05/07 02:31:57;;;;;;;12.68;4.47;;;;;;;;;;5052612;28;20433;-64
2021/05/07 02:34:23;;;;;;;19.42;6.63;;;;;;;;;;5052086;28;20052;-64
2021/05/07 02:36:48;;;;;;;17.77;6.57;;;;;;;;;;5052522;28;20035;-64
2021/05/07 02:39:16;;;;;;;19.77;7.43;;;;;;;;;;5052209;28;20037;-64
2021/05/07 02:41:41;;;;;;;16.25;4.60;;;;;;;;;;5052440;28;20013;-64
2021/05/07 02:44:07;;;;;;;22.27;5.65;;;;;;;;;;5052339;28;20136;-64
2021/05/07 02:46:36;;;;;;;18.58;6.38;;;;;;;;;;5052275;28;20379;-64
2021/05/07 02:49:07;;;;;;;25.88;5.72;;;;;;;;;;5054870;28;20095;-64
2021/05/07 02:51:33;;;;;;;13.77;5.25;;;;;;;;;;5055926;28;20032;-64
2021/05/07 02:53:59;;;;;;;25.50;5.50;;;;;;;;;;5055814;28;20018;-64
2021/05/07 02:56:25;;;;;;;16.23;5.60;;;;;;;;;;5055958;28;20067;-64
2021/05/07 02:58:50;;;;;;;17.17;5.30;;;;;;;;;;5055781;28;20083;-64
2021/05/07 03:01:15;;;;;;;21.63;5.50;;;;;;;;;;5055456;28;20017;-64
2021/05/07 03:03:41;;;;;;;19.52;5.90;;;;;;;;;;5055493;28;20050;-64
2021/05/07 03:06:06;;;;;;;17.10;4.78;;;;;;;;;;5055671;28;20068;-64
2021/05/07 03:08:31;;;;;;;11.55;4.50;;;;;;;;;;5055512;28;20650;-64
2021/05/07 03:10:57;;;;;;;11.13;4.63;;;;;;;;;;5055735;28;20025;-64
2021/05/07 03:13:22;;;;;;;18.23;4.78;;;;;;;;;;5055412;28;20028;-64
2021/05/07 03:15:47;;;;;;;19.75;4.93;;;;;;;;;;5055573;28;20078;-64
2021/05/07 03:18:14;;;;;;;16.23;5.00;;;;;;;;;;5055376;28;20021;-64
2021/05/07 03:20:39;;;;;;;17.20;4.57;;;;;;;;;;5055513;28;20108;-64
2021/05/07 03:23:04;;;;;;;9.98;3.80;;;;;;;;;;5055440;28;20032;-64
2021/05/07 03:25:30;;;;;;;18.33;4.68;;;;;;;;;;5054856;28;20049;-64
2021/05/07 03:27:55;;;;;;;18.25;4.43;;;;;;;;;;5055326;28;20025;-64
2021/05/07 03:30:20;;;;;;;17.38;5.00;;;;;;;;;;5054994;28;20020;-64
2021/05/07 03:32:46;;;;;;;21.20;4.57;;;;;;;;;;5055308;28;20025;-64
2021/05/07 03:35:11;;;;;;;23.88;6.15;;;;;;;;;;5055082;28;20025;-64
2021/05/07 03:37:36;;;;;;;15.68;4.07;;;;;;;;;;5055052;28;20377;-64
2021/05/07 03:40:02;;;;;;;14.25;5.00;;;;;;;;;;5055091;28;20143;-64
2021/05/07 03:42:27;;;;;;;13.85;4.25;;;;;;;;;;5054898;28;20086;-64
2021/05/07 03:44:52;;;;;;;12.10;4.47;;;;;;;;;;5054915;28;20071;-64
2021/05/07 03:47:18;;;;;;;14.95;4.43;;;;;;;;;;5054526;28;20119;-64
2021/05/07 03:49:43;;;;;;;14.98;4.15;;;;;;;;;;5054509;28;20116;-64
2021/05/07 03:52:08;;;;;;;21.92;4.60;;;;;;;;;;5054887;28;20017;-63
2021/05/07 03:54:34;;;;;;;15.40;4.32;;;;;;;;;;5054715;28;20025;-64
2021/05/07 03:56:59;;;;;;;15.25;4.35;;;;;;;;;;5054729;28;20042;-64
2021/05/07 03:59:24;;;;;;;17.20;4.32;;;;;;;;;;5053306;28;20021;-64
2021/05/07 04:01:49;;;;;;;14.77;4.10;;;;;;;;;;5054684;28;20041;-64
2021/05/07 04:04:15;;;;;;;11.70;4.10;;;;;;;;;;5054547;28;20028;-64
2021/05/07 04:06:40;;;;;;;15.85;3.97;;;;;;;;;;5054436;28;20461;-64
2021/05/07 04:11:33;;;;;;;19.45;4.35;;;;;;;;;;5054467;28;20411;-64
2021/05/07 04:13:58;;;;;;;16.08;4.00;;;;;;;;;;5053994;28;20457;-64
2021/05/07 04:16:24;;;;;;;17.60;3.75;;;;;;;;;;5054412;28;20025;-64
2021/05/07 04:18:52;;;;;;;9.90;4.28;;;;;;;;;;5054244;28;20380;-64
2021/05/07 04:21:17;;;;;;;16.67;3.97;;;;;;;;;;5054133;28;20494;-64
2021/05/07 04:23:43;;;;;;;11.15;3.72;;;;;;;;;;5054247;28;20021;-64
2021/05/07 04:26:08;;;;;;;14.18;3.78;;;;;;;;;;5054009;28;20073;-64
2021/05/07 04:28:33;;;;;;;30.45;4.13;;;;;;;;;;5054021;28;20444;-63
2021/05/07 04:30:59;;;;;;;19.27;4.15;;;;;;;;;;5053840;28;20032;-64
2021/05/07 04:33:24;;;;;;;16.00;3.45;;;;;;;;;;5053896;28;20040;-63
2021/05/07 04:35:49;;;;;;;17.63;3.85;;;;;;;;;;5054271;28;20024;-63
2021/05/07 04:38:14;;;;;;;16.40;4.18;;;;;;;;;;5054049;28;20420;-63
2021/05/07 04:40:40;;;;;;;10.25;3.50;;;;;;;;;;5053766;28;20063;-63
2021/05/07 04:43:05;;;;;;;15.52;3.80;;;;;;;;;;5053960;28;20021;-63
2021/05/07 04:45:31;;;;;;;15.98;3.90;;;;;;;;;;5053650;28;20017;-64
2021/05/07 04:47:57;;;;;;;9.73;3.53;;;;;;;;;;5053600;28;20044;-63
2021/05/07 04:50:23;;;;;;;13.50;4.15;;;;;;;;;;5052276;28;20074;-64
2021/05/07 04:52:48;;;;;;;12.20;3.88;;;;;;;;;;5053815;28;20052;-64
2021/05/07 04:55:13;;;;;;;10.65;3.58;;;;;;;;;;5053446;28;20166;-64
2021/05/07 04:57:38;;;;;;;11.43;3.50;;;;;;;;;;5053620;28;20485;-64
2021/05/07 05:00:04;;;;;;;10.73;3.67;;;;;;;;;;5053575;28;20056;-64
2021/05/07 05:02:30;;;;;;;15.23;3.72;;;;;;;;;;5053440;28;20044;-64
2021/05/07 05:04:56;;;;;;;11.48;3.40;;;;;;;;;;5053387;28;20017;-64
2021/05/07 05:07:21;;;;;;;21.88;4.28;;;;;;;;;;5053341;28;20029;-64
2021/05/07 05:09:47;;;;;;;11.70;3.83;;;;;;;;;;5053405;28;20350;-64
2021/05/07 05:12:12;;;;;;;15.60;4.15;;;;;;;;;;5053005;28;20017;-64
2021/05/07 05:14:37;;;;;;;13.23;4.07;;;;;;;;;;5052911;28;20101;-64
2021/05/07 05:17:02;;;;;;;12.68;3.40;;;;;;;;;;5053629;28;20029;-64
2021/05/07 05:19:28;;;;;;;11.55;3.70;;;;;;;;;;5053026;28;20017;-64
2021/05/07 05:21:53;;;;;;;11.65;3.08;;;;;;;;;;5053371;28;20365;-64
2021/05/07 05:24:18;;;;;;;8.73;2.95;;;;;;;;;;5053318;28;20036;-64
2021/05/07 05:26:43;;;;;;;6.13;2.72;;;;;;;;;;5053120;28;20373;-65
2021/05/07 05:29:13;;;;;;;9.15;2.90;;;;;;;;;;5053144;28;20099;-65
2021/05/07 05:31:38;;;;;;;12.82;2.50;;;;;;;;;;5053170;28;20040;-65
2021/05/07 05:34:04;;;;;;;12.63;2.60;;;;;;;;;;5053067;28;20021;-63
2021/05/07 05:36:29;;;;;;;117.95;8.45;;;;;;;;;;5052848;28;20021;-63
2021/05/07 05:38:54;;;;;;;48.90;4.07;;;;;;;;;;5052965;28;20411;-66
2021/05/07 05:41:19;;;;;;;95.53;6.47;;;;;;;;;;5052497;28;20045;-63
2021/05/07 05:43:46;;;;;;;10.98;2.00;;;;;;;;;;5052995;28;20040;-63
2021/05/07 05:46:11;;;;;;;6.22;2.33;;;;;;;;;;5053393;28;20037;-63
2021/05/07 05:48:37;;;;;;;5.07;1.75;;;;;;;;;;5052779;28;20021;-63
2021/05/07 05:51:02;;;;;;;5.45;1.90;;;;;;;;;;5053101;28;20095;-63
2021/05/07 05:53:27;;;;;;;6.63;1.98;;;;;;;;;;5052830;28;20025;-63
2021/05/07 05:55:52;;;;;;;3.17;1.65;;;;;;;;;;5052859;28;20063;-63
2021/05/07 05:58:18;;;;;;;5.15;1.52;;;;;;;;;;5052940;28;20021;-63
2021/05/07 06:00:43;;;;;;;4.63;1.45;;;;;;;;;;5052803;28;20099;-63
2021/05/07 06:03:08;;;;;;;5.25;1.60;;;;;;;;;;5052640;28;20017;-64
2021/05/07 06:05:34;;;;;;;2.90;1.42;;;;;;;;;;5052587;28;20021;-63
2021/05/07 06:07:59;;;;;;;7.47;2.00;;;;;;;;;;5052869;28;20124;-64
2021/05/07 06:10:24;;;;;;;5.25;1.63;;;;;;;;;;5052627;28;20021;-64
2021/05/07 06:12:49;;;;;;;3.55;1.40;;;;;;;;;;5052864;28;20088;-64
2021/05/07 06:15:16;;;;;;;4.88;1.30;;;;;;;;;;5052858;28;20037;-64
2021/05/07 06:17:41;;;;;;;4.15;1.83;;;;;;;;;;5052784;28;20028;-63
2021/05/07 06:20:08;;;;;;;7.97;1.85;;;;;;;;;;5052625;28;20454;-64
2021/05/07 06:22:34;;;;;;;2.85;1.20;;;;;;;;;;5053004;28;20478;-64
2021/05/07 06:25:00;;;;;;;4.95;2.30;;;;;;;;;;5056701;28;20028;-64
2021/05/07 06:27:25;;;;;;;3.38;1.13;;;;;;;;;;5056418;28;20033;-64
2021/05/07 06:29:51;;;;;;;4.25;1.20;;;;;;;;;;5056082;28;20072;-63
2021/05/07 06:32:16;;;;;;;7.25;2.03;;;;;;;;;;5056271;28;20029;-64
2021/05/07 06:34:41;;;;;;;3.38;1.30;;;;;;;;;;5056278;28;20472;-63
2021/05/07 06:37:06;;;;;;;4.00;1.67;;;;;;;;;;5056319;28;20037;-64
2021/05/07 06:39:32;;;;;;;5.60;1.30;;;;;;;;;;5055865;28;20465;-64
2021/05/07 06:41:57;;;;;;;5.57;1.25;;;;;;;;;;5056169;28;20025;-63
2021/05/07 06:44:24;;;;;;;3.55;1.15;;;;;;;;;;5055718;28;20417;-64
2021/05/07 06:46:49;;;;;;;2.20;1.27;;;;;;;;;;5053864;28;20032;-64
2021/05/07 06:49:14;;;;;;;3.33;1.23;;;;;;;;;;5055826;28;20120;-64
2021/05/07 06:51:40;;;;;;;7.45;1.48;;;;;;;;;;5055981;28;20051;-64
2021/05/07 06:54:06;;;;;;;5.05;1.65;;;;;;;;;;5055778;28;20056;-64
2021/05/07 06:56:31;;;;;;;2.28;1.30;;;;;;;;;;5055918;28;20054;-64
2021/05/07 06:58:57;;;;;;;5.32;1.45;;;;;;;;;;5055777;28;20033;-64
2021/05/07 07:01:22;;;;;;;2.72;1.33;;;;;;;;;;5056113;28;20098;-64
2021/05/07 07:03:47;;;;;;;3.90;1.35;;;;;;;;;;5055699;28;20469;-64
2021/05/07 07:06:12;;;;;;;5.28;1.50;;;;;;;;;;5055937;28;20360;-65
2021/05/07 07:08:38;;;;;;;4.93;1.48;;;;;;;;;;5055580;28;20028;-65
2021/05/07 07:11:03;;;;;;;4.10;1.77;;;;;;;;;;5055611;28;20025;-65
2021/05/07 07:13:28;;;;;;;5.47;2.08;;;;;;;;;;5055188;28;20033;-65
2021/05/07 07:15:54;;;;;;;6.47;1.50;;;;;;;;;;5055382;28;20108;-65
2021/05/07 07:18:19;;;;;;;5.43;2.00;;;;;;;;;;5055412;28;20025;-65
2021/05/07 07:20:45;;;;;;;9.63;1.73;;;;;;;;;;5055390;28;20063;-65
2021/05/07 07:23:10;;;;;;;4.45;1.65;;;;;;;;;;5055402;28;20056;-65
2021/05/07 07:25:35;;;;;;;5.63;1.63;;;;;;;;;;5054932;28;20043;-65
2021/05/07 07:28:03;;;;;;;5.18;2.30;;;;;;;;;;5055259;28;20033;-65
2021/05/07 07:30:28;;;;;;;6.78;1.98;;;;;;;;;;5062835;28;20016;-65
2021/05/07 07:32:53;;;;;;;6.38;2.20;;;;;;;;;;5072310;28;20093;-65
2021/05/07 07:35:18;;;;;;;4.15;1.80;;;;;;;;;;5072076;28;20039;-65
2021/05/07 07:37:44;;;;;;;4.43;1.70;;;;;;;;;;5072591;28;20098;-65
2021/05/07 07:40:10;;;;;;;7.55;2.30;;;;;;;;;;5072372;28;20095;-65
2021/05/07 07:42:35;;;;;;;7.75;2.33;;;;;;;;;;5060641;28;20443;-65
2021/05/07 07:45:00;;;;;;;8.85;2.10;;;;;;;;;;5052319;28;20025;-65
2021/05/07 07:47:25;;;;;;;6.60;2.38;;;;;;;;;;5052042;28;20029;-65
2021/05/07 07:49:51;;;;;;;6.25;1.98;;;;;;;;;;5052138;28;20108;-65
2021/05/07 07:52:16;;;;;;;10.57;2.20;;;;;;;;;;5052700;28;20112;-65
2021/05/07 07:54:42;;;;;;;7.45;2.00;;;;;;;;;;5051936;28;20377;-65
2021/05/07 07:57:07;;;;;;;4.53;1.70;;;;;;;;;;5053706;28;20481;-65
2021/05/07 07:59:33;;;;;;;8.23;1.95;;;;;;;;;;5054244;28;20025;-65
2021/05/07 08:02:00;;;;;;;7.25;2.33;;;;;;;;;;5049467;28;20074;-65
2021/05/07 08:04:25;;;;;;;5.90;2.22;;;;;;;;;;5052458;28;20461;-66
2021/05/07 08:06:50;;;;;;;7.53;2.03;;;;;;;;;;5051937;28;20040;-65
2021/05/07 08:09:16;;;;;;;7.18;1.55;;;;;;;;;;5051890;28;20056;-65
2021/05/07 08:11:41;;;;;;;5.53;1.67;;;;;;;;;;5051960;28;20063;-65
2021/05/07 08:14:06;;;;;;;4.85;1.20;;;;;;;;;;5051617;28;20047;-65
2021/05/07 08:16:32;;;;;;;7.75;2.97;;;;;;;;;;5051193;28;20048;-65
2021/05/07 08:18:57;;;;;;;12.48;1.98;;;;;;;;;;5051699;28;20036;-65
2021/05/07 08:21:24;;;;;;;7.40;2.42;;;;;;;;;;5048698;28;20017;-65
2021/05/07 08:23:50;;;;;;;7.53;1.83;;;;;;;;;;5039334;28;20484;-65
2021/05/07 08:26:15;;;;;;;6.55;1.70;;;;;;;;;;5045496;28;20041;-65
2021/05/07 08:28:40;;;;;;;9.95;2.03;;;;;;;;;;5046191;28;20107;-64
2021/05/07 08:31:06;;;;;;;7.22;1.67;;;;;;;;;;5045986;28;20028;-65
2021/05/07 08:33:31;;;;;;;8.70;1.52;;;;;;;;;;5046160;28;20436;-65
2021/05/07 08:35:56;;;;;;;5.63;1.30;;;;;;;;;;5045182;28;20029;-65
2021/05/07 08:38:22;;;;;;;8.57;1.85;;;;;;;;;;5045238;28;20167;-65
2021/05/07 08:40:47;;;;;;;7.15;1.75;;;;;;;;;;5038334;28;20496;-65
2021/05/07 08:43:14;;;;;;;6.90;1.90;;;;;;;;;;5044197;28;20049;-65
2021/05/07 08:45:39;;;;;;;5.68;2.20;;;;;;;;;;5043048;28;20021;-65
2021/05/07 08:48:05;;;;;;;5.38;1.77;;;;;;;;;;5042857;28;20385;-66
2021/05/07 08:50:31;;;;;;;9.02;2.00;;;;;;;;;;5040833;28;20060;-65
2021/05/07 08:52:56;;;;;;;6.05;1.88;;;;;;;;;;5042798;28;20025;-65
2021/05/07 08:55:22;;;;;;;6.05;1.95;;;;;;;;;;5043683;28;20033;-65
2021/05/07 08:57:47;;;;;;;6.88;1.73;;;;;;;;;;5041941;28;20033;-65
2021/05/07 09:00:13;;;;;;;8.48;1.70;;;;;;;;;;5041517;28;20016;-65
2021/05/07 09:02:39;;;;;;;5.88;2.08;;;;;;;;;;5041878;28;20261;-65
2021/05/07 09:05:04;;;;;;;4.35;2.15;;;;;;;;;;5042547;28;20057;-65
2021/05/07 09:07:30;;;;;;;6.32;1.40;;;;;;;;;;5041504;28;20029;-65
2021/05/07 09:10:00;;;;;;;4.72;1.50;;;;;;;;;;5042428;28;20036;-65
2021/05/07 09:12:25;;;;;;;8.65;1.80;;;;;;;;;;5042972;28;20094;-65
2021/05/07 09:14:51;;;;;;;6.45;2.00;;;;;;;;;;5041798;28;20461;-66
2021/05/07 09:17:20;;;;;;;7.60;1.70;;;;;;;;;;5042068;28;20075;-65
2021/05/07 09:19:45;;;;;;;7.85;2.03;;;;;;;;;;5041183;28;20099;-65
2021/05/07 09:22:21;;;;;;;6.53;1.73;;;;;;;;;;5042323;28;20116;-65
2021/05/07 09:24:46;;;;;;;7.63;2.22;;;;;;;;;;5041610;28;20444;-65
2021/05/07 09:27:19;;;;;;;5.85;1.60;;;;;;;;;;5047124;28;20480;-65
2021/05/07 09:29:45;;;;;;;8.75;2.17;;;;;;;;;;5032035;28;20045;-65
2021/05/07 09:32:10;;;;;;;3.92;1.70;;;;;;;;;;5039667;28;20082;-65
2021/05/07 09:34:36;;;;;;;5.47;1.70;;;;;;;;;;5042478;28;20489;-65
2021/05/07 09:37:11;;;;;;;3.53;1.48;;;;;;;;;;5043638;28;20035;-65
2021/05/07 09:39:37;;;;;;;7.10;1.50;;;;;;;;;;5043271;28;20048;-65
2021/05/07 09:42:02;;;;;;;6.32;1.83;;;;;;;;;;5043497;28;20041;-65
2021/05/07 09:44:32;;;;;;;5.38;1.88;;;;;;;;;;5043333;28;20040;-65
2021/05/07 09:46:58;;;;;;;8.60;1.73;;;;;;;;;;5042075;28;20049;-65
2021/05/07 09:49:25;;;;;;;5.88;1.65;;;;;;;;;;5043299;28;20032;-65
2021/05/07 09:51:50;;;;;;;10.25;2.40;;;;;;;;;;5043631;28;20036;-64
2021/05/07 09:54:16;;;;;;;6.70;1.73;;;;;;;;;;5044836;28;20033;-64
2021/05/07 09:56:41;;;;;;;7.20;1.75;;;;;;;;;;5043959;28;20790;-64
2021/05/07 09:59:08;;;;;;;7.65;2.15;;;;;;;;;;5048073;28;20025;-66
2021/05/07 10:01:34;;;;;;;5.53;1.65;;;;;;;;;;5047170;28;20037;-66
2021/05/07 10:04:01;;;;;;;5.05;1.45;;;;;;;;;;5047728;28;20040;-66
2021/05/07 10:06:27;;;;;;;8.65;1.60;;;;;;;;;;5047646;28;20032;-66
2021/05/07 10:08:52;;;;;;;5.88;2.10;;;;;;;;;;5048083;28;20377;-66
2021/05/07 10:11:20;;;;;;;11.88;2.25;;;;;;;;;;5047045;28;20032;-66
2021/05/07 10:13:45;;;;;;;11.85;2.60;;;;;;;;;;5046949;28;20029;-66
2021/05/07 10:16:11;;;;;;;9.68;2.10;;;;;;;;;;5047478;28;20397;-66
2021/05/07 10:18:38;;;;;;;13.70;2.53;;;;;;;;;;5047324;28;20135;-66
2021/05/07 10:21:04;;;;;;;7.05;2.35;;;;;;;;;;5047567;28;20040;-66
2021/05/07 10:23:30;;;;;;;8.35;2.55;;;;;;;;;;5047623;28;20040;-66
2021/05/07 10:25:56;;;;;;;12.45;2.50;;;;;;;;;;5045420;28;20382;-66
2021/05/07 10:28:22;;;;;;;8.23;2.47;;;;;;;;;;5047411;28;20028;-66
2021/05/07 10:30:47;;;;;;;11.95;2.30;;;;;;;;;;5046177;28;20037;-66
2021/05/07 10:33:17;;;;;;;7.43;1.95;;;;;;;;;;5046275;28;20029;-66
2021/05/07 10:35:42;;;;;;;9.40;2.45;;;;;;;;;;5046387;28;20025;-66
2021/05/07 10:38:09;;;;;;;10.75;2.08;;;;;;;;;;5045543;28;20032;-66
2021/05/07 10:40:34;;;;;;;7.60;1.90;;;;;;;;;;5044973;28;20055;-65
2021/05/07 10:43:00;;;;;;;5.82;1.50;;;;;;;;;;5045998;28;20016;-66
2021/05/07 10:45:45;;;;;;;4.97;1.67;;;;;;;;;;5045936;28;20489;-66
2021/05/07 10:48:14;;;;;;;11.02;1.90;;;;;;;;;;5045111;28;20548;-66
2021/05/07 10:50:40;;;;;;;9.02;1.20;;;;;;;;;;5043226;28;20044;-66
2021/05/07 10:53:05;;;;;;;7.32;1.80;;;;;;;;;;5046000;28;20037;-66
2021/05/07 10:55:34;;;;;;;6.15;1.48;;;;;;;;;;5045958;28;20029;-66
2021/05/07 10:58:01;;;;;;;6.70;1.55;;;;;;;;;;5045504;28;20056;-66
2021/05/07 11:00:37;;;;;;;5.80;1.50;;;;;;;;;;5045732;28;20033;-66
2021/05/07 11:03:04;;;;;;;6.30;1.23;;;;;;;;;;5044037;28;20025;-66
2021/05/07 11:05:39;;;;;;;4.60;1.25;;;;;;;;;;5046420;28;20108;-66
2021/05/07 11:08:04;;;;;;;10.48;1.92;;;;;;;;;;5045076;28;20535;-65
2021/05/07 11:10:30;;;;;;;10.48;1.77;;;;;;;;;;5045386;28;20119;-66
2021/05/07 11:12:55;;;;;;;13.18;5.40;;;;;;;;;;5046110;28;20103;-65
2021/05/07 11:15:21;;;;;;;19.67;8.90;;;;;;;;;;5045656;28;20040;-66
2021/05/07 11:17:57;;;;;;;8.57;2.25;;;;;;;;;;5045786;28;20087;-66
2021/05/07 11:20:28;;;;;;;10.50;2.05;;;;;;;;;;5045882;28;20036;-66
2021/05/07 11:22:57;;;;;;;6.32;1.88;;;;;;;;;;5045247;28;20093;-66
2021/05/07 11:25:23;;;;;;;15.65;5.25;;;;;;;;;;5045576;28;20075;-66
2021/05/07 11:27:48;;;;;;;41.22;18.38;;;;;;;;;;5045098;28;20787;-66
2021/05/07 11:30:14;;;;;;;32.35;13.75;;;;;;;;;;5045600;28;20028;-66
2021/05/07 11:32:39;;;;;;;8.00;2.70;;;;;;;;;;5045874;28;20500;-66
2021/05/07 11:35:07;;;;;;;5.88;2.00;;;;;;;;;;5043762;28;20036;-66
2021/05/07 11:37:32;;;;;;;19.90;8.05;;;;;;;;;;5045681;28;20024;-66
2021/05/07 11:39:58;;;;;;;10.93;5.00;;;;;;;;;;5045053;28;20049;-66
2021/05/07 11:42:29;;;;;;;17.92;7.55;;;;;;;;;;5045260;28;20106;-66
2021/05/07 11:44:55;;;;;;;21.83;6.55;;;;;;;;;;5045309;28;20029;-66
2021/05/07 11:47:20;;;;;;;8.98;3.25;;;;;;;;;;5045668;28;20041;-65
2021/05/07 11:49:49;;;;;;;9.50;3.20;;;;;;;;;;5044972;28;20377;-65
2021/05/07 11:52:15;;;;;;;7.05;2.38;;;;;;;;;;5045414;28;20087;-66
2021/05/07 11:54:46;;;;;;;11.30;2.53;;;;;;;;;;5045339;28;20409;-65
2021/05/07 11:57:19;;;;;;;5.90;2.10;;;;;;;;;;5044719;28;20036;-65
2021/05/07 11:59:48;;;;;;;8.20;2.10;;;;;;;;;;5043357;28;20390;-66
2021/05/07 12:02:26;;;;;;;7.20;2.15;;;;;;;;;;5045205;28;20043;-65
2021/05/07 12:04:53;;;;;;;5.57;1.95;;;;;;;;;;5046507;28;20484;-66
2021/05/07 12:07:25;;;;;;;7.18;1.90;;;;;;;;;;5048684;28;20045;-66
2021/05/07 12:09:51;;;;;;;3.83;1.63;;;;;;;;;;5048697;28;20013;-66
2021/05/07 12:12:16;;;;;;;7.13;1.88;;;;;;;;;;5047878;28;20029;-66
2021/05/07 12:14:48;;;;;;;5.88;1.55;;;;;;;;;;5048056;28;20133;-66
2021/05/07 12:17:14;;;;;;;9.15;1.95;;;;;;;;;;5048622;28;20013;-66
2021/05/07 12:19:40;;;;;;;7.35;1.85;;;;;;;;;;5036277;28;20025;-66
2021/05/07 12:22:05;;;;;;;5.40;1.75;;;;;;;;;;5042202;28;20086;-66
2021/05/07 12:24:30;;;;;;;6.30;1.95;;;;;;;;;;5043617;28;20087;-66
2021/05/07 12:26:55;;;;;;;4.40;1.23;;;;;;;;;;5043050;28;20041;-66
2021/05/07 12:29:21;;;;;;;7.85;1.73;;;;;;;;;;5043443;28;20094;-66
2021/05/07 12:31:46;;;;;;;11.38;1.80;;;;;;;;;;5043535;28;20025;-66
2021/05/07 12:34:16;;;;;;;5.72;1.77;;;;;;;;;;5042462;28;20040;-66
2021/05/07 12:36:42;;;;;;;6.00;1.73;;;;;;;;;;5043681;28;20390;-66
2021/05/07 12:39:08;;;;;;;4.47;1.42;;;;;;;;;;5043673;28;20029;-66
2021/05/07 12:41:39;;;;;;;7.03;1.42;;;;;;;;;;5062031;28;20821;-66
2021/05/07 12:44:04;;;;;;;6.70;1.60;;;;;;;;;;5058907;28;20037;-66
2021/05/07 12:46:30;;;;;;;6.93;1.50;;;;;;;;;;5059769;28;20465;-66
2021/05/07 12:48:56;;;;;;;7.70;1.80;;;;;;;;;;5063027;28;20017;-66
2021/05/07 12:51:22;;;;;;;3.75;1.15;;;;;;;;;;5060723;28;20036;-66
2021/05/07 12:53:48;;;;;;;5.93;1.50;;;;;;;;;;5058750;28;20013;-66
2021/05/07 12:56:16;;;;;;;6.45;1.33;;;;;;;;;;5062601;28;20016;-66
2021/05/07 12:58:41;;;;;;;5.55;1.50;;;;;;;;;;5061473;28;20129;-66
2021/05/07 13:01:07;;;;;;;6.60;1.73;;;;;;;;;;5062718;28;20476;-66
2021/05/07 13:03:33;;;;;;;6.75;1.90;;;;;;;;;;5059774;28;20526;-66
2021/05/07 13:05:58;;;;;;;5.45;1.42;;;;;;;;;;5059665;28;20465;-66
2021/05/07 13:08:23;;;;;;;8.15;1.83;;;;;;;;;;5059468;28;20020;-65
2021/05/07 13:10:48;;;;;;;9.18;2.00;;;;;;;;;;5062630;28;20102;-66
2021/05/07 13:13:14;;;;;;;5.20;1.48;;;;;;;;;;5062279;28;20025;-66
2021/05/07 13:15:39;;;;;;;9.07;1.70;;;;;;;;;;5059015;28;20333;-65
2021/05/07 13:18:06;;;;;;;6.95;1.80;;;;;;;;;;5063205;28;20039;-66
2021/05/07 13:20:31;;;;;;;10.95;2.00;;;;;;;;;;5063481;28;20501;-66
2021/05/07 13:22:57;;;;;;;5.50;1.50;;;;;;;;;;5063621;28;20025;-66
2021/05/07 13:25:22;;;;;;;4.20;1.30;;;;;;;;;;5063444;28;20054;-66
2021/05/07 13:27:49;;;;;;;7.30;1.40;;;;;;;;;;5064032;28;20595;-66
2021/05/07 13:30:16;;;;;;;7.57;1.70;;;;;;;;;;5063128;28;20025;-66
2021/05/07 13:32:42;;;;;;;4.88;1.70;;;;;;;;;;5062779;28;20012;-66
2021/05/07 13:35:07;;;;;;;9.00;1.95;;;;;;;;;;5062836;28;20110;-66
2021/05/07 13:37:33;;;;;;;6.13;1.75;;;;;;;;;;5062900;28;20096;-66
2021/05/07 13:40:03;;;;;;;5.10;1.40;;;;;;;;;;5063068;28;20139;-66
2021/05/07 13:42:29;;;;;;;6.55;1.67;;;;;;;;;;5061877;28;20378;-66
2021/05/07 13:44:54;;;;;;;5.95;1.80;;;;;;;;;;5062896;28;20112;-66
2021/05/07 13:47:20;;;;;;;7.45;1.77;;;;;;;;;;5062590;28;20457;-66
2021/05/07 13:49:45;;;;;;;7.07;2.05;;;;;;;;;;5061773;28;20944;-66
2021/05/07 13:52:10;;;;;;;7.22;1.65;;;;;;;;;;5053643;28;20421;-66
2021/05/07 13:54:36;;;;;;;4.00;1.60;;;;;;;;;;5049583;28;20023;-66
2021/05/07 13:57:01;;;;;;;3.90;1.80;;;;;;;;;;5049378;28;20416;-66
2021/05/07 13:59:26;;;;;;;8.05;1.50;;;;;;;;;;5050265;28;20017;-66
2021/05/07 14:01:51;;;;;;;5.53;1.70;;;;;;;;;;5048041;28;20890;-66
2021/05/07 14:04:17;;;;;;;7.45;1.48;;;;;;;;;;5049319;28;20075;-66
2021/05/07 14:06:42;;;;;;;6.18;1.55;;;;;;;;;;5049513;28;20047;-66
2021/05/07 14:09:08;;;;;;;8.00;1.58;;;;;;;;;;5049728;28;20058;-66
2021/05/07 14:11:34;;;;;;;5.78;1.38;;;;;;;;;;5050019;28;20052;-66
2021/05/07 14:14:00;;;;;;;6.90;1.60;;;;;;;;;;5049152;28;20021;-66
2021/05/07 14:16:26;;;;;;;10.55;1.52;;;;;;;;;;5048160;28;20028;-66
2021/05/07 14:18:51;;;;;;;6.60;1.77;;;;;;;;;;5048688;28;20048;-66
2021/05/07 14:21:16;;;;;;;3.92;1.58;;;;;;;;;;5048679;28;20033;-66
2021/05/07 14:23:42;;;;;;;6.38;1.30;;;;;;;;;;5049880;28;20016;-66
2021/05/07 14:26:07;;;;;;;6.28;1.45;;;;;;;;;;5049487;28;20532;-66
2021/05/07 14:28:32;;;;;;;6.38;1.42;;;;;;;;;;5048955;28;20029;-65
2021/05/07 14:30:58;;;;;;;6.10;1.70;;;;;;;;;;5042092;28;20094;-66